sensor_id;sensor_type;location;lat;lon;timestamp;P1;durP1;ratioP1;P2;durP2;ratioP2
19691;SDS011;42748;50.016;19.890;2024-02-23T00:01:05;2.00;;;1.42;;
19691;SDS011;42748;50.016;19.890;2024-02-23T00:03:33;2.50;;;1.63;;
19691;SDS011;42748;50.016;19.890;2024-02-23T00:06:10;2.72;;;1.60;;
19691;SDS011;42748;50.016;19.890;2024-02-23T00:08:39;3.58;;;1.60;;
19691;SDS011;42748;50.016;19.890;2024-02-23T00:11:08;2.67;;;1.83;;
19691;SDS011;42748;50.016;19.890;2024-02-23T00:13:35;2.58;;;1.63;;
19691;SDS011;42748;50.016;19.890;2024-02-23T00:16:03;3.85;;;1.58;;
19691;SDS011;42748;50.016;19.890;2024-02-23T00:18:31;4.10;;;1.58;;
19691;SDS011;42748;50.016;19.890;2024-02-23T00:20:58;3.63;;;1.88;;
19691;SDS011;42748;50.016;19.890;2024-02-23T00:23:26;2.80;;;1.75;;
19691;SDS011;42748;50.016;19.890;2024-02-23T00:25:55;2.70;;;1.80;;
19691;SDS011;42748;50.016;19.890;2024-02-23T00:28:23;3.38;;;2.10;;
19691;SDS011;42748;50.016;19.890;2024-02-23T00:30:51;2.67;;;1.80;;
19691;SDS011;42748;50.016;19.890;2024-02-23T00:33:19;2.28;;;1.70;;
19691;SDS011;42748;50.016;19.890;2024-02-23T00:35:47;3.78;;;1.70;;
19691;SDS011;42748;50.016;19.890;2024-02-23T00:38:15;2.65;;;1.83;;
19691;SDS011;42748;50.016;19.890;2024-02-23T00:40:42;2.75;;;1.70;;
19691;SDS011;42748;50.016;19.890;2024-02-23T00:43:10;3.00;;;1.77;;
19691;SDS011;42748;50.016;19.890;2024-02-23T00:45:38;3.50;;;1.80;;
19691;SDS011;42748;50.016;19.890;2024-02-23T00:48:06;2.40;;;1.50;;
19691;SDS011;42748;50.016;19.890;2024-02-23T00:50:34;3.00;;;1.90;;
19691;SDS011;42748;50.016;19.890;2024-02-23T00:53:01;2.40;;;1.60;;
19691;SDS011;42748;50.016;19.890;2024-02-23T00:55:29;3.20;;;1.77;;
19691;SDS011;42748;50.016;19.890;2024-02-23T00:57:57;2.30;;;1.60;;
19691;SDS011;42748;50.016;19.890;2024-02-23T01:00:25;3.08;;;2.00;;
19691;SDS011;42748;50.016;19.890;2024-02-23T01:02:53;2.78;;;1.80;;
19691;SDS011;42748;50.016;19.890;2024-02-23T01:05:21;2.78;;;1.67;;
19691;SDS011;42748;50.016;19.890;2024-02-23T01:07:50;3.03;;;1.70;;
19691;SDS011;42748;50.016;19.890;2024-02-23T01:10:17;3.67;;;1.92;;
19691;SDS011;42748;50.016;19.890;2024-02-23T01:12:45;2.67;;;1.92;;
19691;SDS011;42748;50.016;19.890;2024-02-23T01:15:13;3.20;;;1.85;;
19691;SDS011;42748;50.016;19.890;2024-02-23T01:17:41;3.70;;;1.83;;
19691;SDS011;42748;50.016;19.890;2024-02-23T01:20:09;3.65;;;1.90;;
19691;SDS011;42748;50.016;19.890;2024-02-23T01:22:37;3.05;;;1.80;;
19691;SDS011;42748;50.016;19.890;2024-02-23T01:25:05;3.63;;;1.88;;
19691;SDS011;42748;50.016;19.890;2024-02-23T01:27:33;3.75;;;2.10;;
19691;SDS011;42748;50.016;19.890;2024-02-23T01:30:01;3.63;;;2.10;;
19691;SDS011;42748;50.016;19.890;2024-02-23T01:32:29;4.30;;;2.22;;
19691;SDS011;42748;50.016;19.890;2024-02-23T01:34:57;2.85;;;1.90;;
19691;SDS011;42748;50.016;19.890;2024-02-23T01:37:25;3.28;;;2.33;;
19691;SDS011;42748;50.016;19.890;2024-02-23T01:39:52;4.00;;;2.58;;
19691;SDS011;42748;50.016;19.890;2024-02-23T01:42:21;3.22;;;2.13;;
19691;SDS011;42748;50.016;19.890;2024-02-23T01:44:50;4.20;;;2.20;;
19691;SDS011;42748;50.016;19.890;2024-02-23T01:47:19;3.75;;;2.28;;
19691;SDS011;42748;50.016;19.890;2024-02-23T01:49:47;3.63;;;2.20;;
19691;SDS011;42748;50.016;19.890;2024-02-23T01:52:15;3.50;;;2.10;;
19691;SDS011;42748;50.016;19.890;2024-02-23T01:54:43;4.72;;;2.17;;
19691;SDS011;42748;50.016;19.890;2024-02-23T01:57:10;3.67;;;2.10;;
19691;SDS011;42748;50.016;19.890;2024-02-23T01:59:58;4.05;;;2.38;;
19691;SDS011;42748;50.016;19.890;2024-02-23T02:02:29;4.72;;;2.83;;
19691;SDS011;42748;50.016;19.890;2024-02-23T02:04:58;4.35;;;2.40;;
19691;SDS011;42748;50.016;19.890;2024-02-23T02:07:26;5.25;;;2.50;;
19691;SDS011;42748;50.016;19.890;2024-02-23T02:09:53;4.55;;;2.40;;
19691;SDS011;42748;50.016;19.890;2024-02-23T02:12:27;3.85;;;2.50;;
19691;SDS011;42748;50.016;19.890;2024-02-23T02:14:55;4.85;;;3.00;;
19691;SDS011;42748;50.016;19.890;2024-02-23T02:17:23;4.43;;;2.53;;
19691;SDS011;42748;50.016;19.890;2024-02-23T02:19:50;3.97;;;2.35;;
19691;SDS011;42748;50.016;19.890;2024-02-23T02:22:19;4.13;;;2.45;;
19691;SDS011;42748;50.016;19.890;2024-02-23T02:24:46;4.25;;;2.65;;
19691;SDS011;42748;50.016;19.890;2024-02-23T02:27:14;4.20;;;2.40;;
19691;SDS011;42748;50.016;19.890;2024-02-23T02:29:42;5.07;;;2.70;;
19691;SDS011;42748;50.016;19.890;2024-02-23T02:32:10;4.03;;;2.72;;
19691;SDS011;42748;50.016;19.890;2024-02-23T02:34:37;3.70;;;2.70;;
19691;SDS011;42748;50.016;19.890;2024-02-23T02:37:05;4.13;;;2.45;;
19691;SDS011;42748;50.016;19.890;2024-02-23T02:39:32;3.65;;;2.50;;
19691;SDS011;42748;50.016;19.890;2024-02-23T02:42:01;5.43;;;3.08;;
19691;SDS011;42748;50.016;19.890;2024-02-23T02:44:29;3.90;;;2.63;;
19691;SDS011;42748;50.016;19.890;2024-02-23T02:46:57;4.18;;;2.60;;
19691;SDS011;42748;50.016;19.890;2024-02-23T02:49:25;4.68;;;2.90;;
19691;SDS011;42748;50.016;19.890;2024-02-23T02:51:52;4.45;;;2.53;;
19691;SDS011;42748;50.016;19.890;2024-02-23T02:54:20;5.20;;;2.55;;
19691;SDS011;42748;50.016;19.890;2024-02-23T02:56:48;4.15;;;2.75;;
19691;SDS011;42748;50.016;19.890;2024-02-23T02:59:17;4.15;;;2.70;;
19691;SDS011;42748;50.016;19.890;2024-02-23T03:01:45;3.53;;;2.60;;
19691;SDS011;42748;50.016;19.890;2024-02-23T03:04:13;5.50;;;2.90;;
19691;SDS011;42748;50.016;19.890;2024-02-23T03:06:41;4.72;;;2.67;;
19691;SDS011;42748;50.016;19.890;2024-02-23T03:09:10;5.13;;;3.10;;
19691;SDS011;42748;50.016;19.890;2024-02-23T03:11:37;7.43;;;2.88;;
19691;SDS011;42748;50.016;19.890;2024-02-23T03:14:06;4.15;;;2.67;;
19691;SDS011;42748;50.016;19.890;2024-02-23T03:16:34;5.30;;;2.90;;
19691;SDS011;42748;50.016;19.890;2024-02-23T03:19:03;4.18;;;2.80;;
19691;SDS011;42748;50.016;19.890;2024-02-23T03:21:31;4.40;;;2.55;;
19691;SDS011;42748;50.016;19.890;2024-02-23T03:24:00;4.45;;;2.53;;
19691;SDS011;42748;50.016;19.890;2024-02-23T03:26:29;6.13;;;2.80;;
19691;SDS011;42748;50.016;19.890;2024-02-23T03:28:57;4.35;;;2.88;;
19691;SDS011;42748;50.016;19.890;2024-02-23T03:31:24;4.15;;;2.85;;
19691;SDS011;42748;50.016;19.890;2024-02-23T03:33:53;5.20;;;2.95;;
19691;SDS011;42748;50.016;19.890;2024-02-23T03:36:21;5.53;;;2.50;;
19691;SDS011;42748;50.016;19.890;2024-02-23T03:38:48;4.38;;;2.90;;
19691;SDS011;42748;50.016;19.890;2024-02-23T03:41:16;5.72;;;2.83;;
19691;SDS011;42748;50.016;19.890;2024-02-23T03:43:44;4.13;;;2.80;;
19691;SDS011;42748;50.016;19.890;2024-02-23T03:46:12;4.85;;;2.80;;
19691;SDS011;42748;50.016;19.890;2024-02-23T03:48:41;4.10;;;2.60;;
19691;SDS011;42748;50.016;19.890;2024-02-23T03:51:09;5.65;;;3.05;;
19691;SDS011;42748;50.016;19.890;2024-02-23T03:53:37;4.47;;;2.65;;
19691;SDS011;42748;50.016;19.890;2024-02-23T03:56:05;5.82;;;2.83;;
19691;SDS011;42748;50.016;19.890;2024-02-23T03:58:33;4.43;;;2.97;;
19691;SDS011;42748;50.016;19.890;2024-02-23T04:01:00;4.07;;;2.78;;
19691;SDS011;42748;50.016;19.890;2024-02-23T04:03:28;4.53;;;2.83;;
19691;SDS011;42748;50.016;19.890;2024-02-23T04:05:56;4.47;;;3.13;;
19691;SDS011;42748;50.016;19.890;2024-02-23T04:08:23;4.28;;;2.58;;
19691;SDS011;42748;50.016;19.890;2024-02-23T04:10:51;4.60;;;2.80;;
19691;SDS011;42748;50.016;19.890;2024-02-23T04:13:19;4.60;;;2.90;;
19691;SDS011;42748;50.016;19.890;2024-02-23T04:15:47;5.13;;;3.05;;
19691;SDS011;42748;50.016;19.890;2024-02-23T04:18:15;7.18;;;3.20;;
19691;SDS011;42748;50.016;19.890;2024-02-23T04:20:43;6.13;;;3.30;;
19691;SDS011;42748;50.016;19.890;2024-02-23T04:23:11;5.78;;;3.35;;
19691;SDS011;42748;50.016;19.890;2024-02-23T04:25:38;5.28;;;2.90;;
19691;SDS011;42748;50.016;19.890;2024-02-23T04:28:06;5.15;;;3.05;;
19691;SDS011;42748;50.016;19.890;2024-02-23T04:30:33;4.68;;;3.08;;
19691;SDS011;42748;50.016;19.890;2024-02-23T04:33:01;3.95;;;2.72;;
19691;SDS011;42748;50.016;19.890;2024-02-23T04:35:29;6.07;;;3.28;;
19691;SDS011;42748;50.016;19.890;2024-02-23T04:37:57;6.45;;;3.20;;
19691;SDS011;42748;50.016;19.890;2024-02-23T04:40:25;5.60;;;3.08;;
19691;SDS011;42748;50.016;19.890;2024-02-23T04:42:53;5.03;;;3.10;;
19691;SDS011;42748;50.016;19.890;2024-02-23T04:45:20;3.83;;;2.70;;
19691;SDS011;42748;50.016;19.890;2024-02-23T04:47:48;4.30;;;2.90;;
19691;SDS011;42748;50.016;19.890;2024-02-23T04:50:16;4.65;;;3.15;;
19691;SDS011;42748;50.016;19.890;2024-02-23T04:52:44;4.65;;;2.80;;
19691;SDS011;42748;50.016;19.890;2024-02-23T04:55:11;5.55;;;3.03;;
19691;SDS011;42748;50.016;19.890;2024-02-23T04:57:39;5.35;;;3.50;;
19691;SDS011;42748;50.016;19.890;2024-02-23T05:00:07;4.60;;;3.00;;
19691;SDS011;42748;50.016;19.890;2024-02-23T05:02:35;6.00;;;3.17;;
19691;SDS011;42748;50.016;19.890;2024-02-23T05:05:03;5.65;;;3.40;;
19691;SDS011;42748;50.016;19.890;2024-02-23T05:07:31;4.90;;;3.25;;
19691;SDS011;42748;50.016;19.890;2024-02-23T05:10:00;6.43;;;3.30;;
19691;SDS011;42748;50.016;19.890;2024-02-23T05:12:28;5.70;;;3.60;;
19691;SDS011;42748;50.016;19.890;2024-02-23T05:14:56;6.60;;;4.20;;
19691;SDS011;42748;50.016;19.890;2024-02-23T05:17:24;5.15;;;3.58;;
19691;SDS011;42748;50.016;19.890;2024-02-23T05:19:53;5.82;;;3.92;;
19691;SDS011;42748;50.016;19.890;2024-02-23T05:22:21;5.75;;;3.58;;
19691;SDS011;42748;50.016;19.890;2024-02-23T05:24:48;5.75;;;3.90;;
19691;SDS011;42748;50.016;19.890;2024-02-23T05:27:16;5.50;;;3.45;;
19691;SDS011;42748;50.016;19.890;2024-02-23T05:29:44;5.43;;;3.50;;
19691;SDS011;42748;50.016;19.890;2024-02-23T05:32:12;6.47;;;3.80;;
19691;SDS011;42748;50.016;19.890;2024-02-23T05:34:39;6.70;;;4.35;;
19691;SDS011;42748;50.016;19.890;2024-02-23T05:37:09;8.32;;;4.35;;
19691;SDS011;42748;50.016;19.890;2024-02-23T05:39:36;6.05;;;4.05;;
19691;SDS011;42748;50.016;19.890;2024-02-23T05:42:04;6.82;;;4.03;;
19691;SDS011;42748;50.016;19.890;2024-02-23T05:44:32;6.07;;;4.00;;
19691;SDS011;42748;50.016;19.890;2024-02-23T05:47:00;6.97;;;3.97;;
19691;SDS011;42748;50.016;19.890;2024-02-23T05:49:28;7.40;;;4.22;;
19691;SDS011;42748;50.016;19.890;2024-02-23T05:51:56;5.30;;;4.13;;
19691;SDS011;42748;50.016;19.890;2024-02-23T05:54:24;7.13;;;4.30;;
19691;SDS011;42748;50.016;19.890;2024-02-23T05:56:51;5.65;;;4.00;;
19691;SDS011;42748;50.016;19.890;2024-02-23T05:59:19;5.57;;;4.00;;
19691;SDS011;42748;50.016;19.890;2024-02-23T06:01:46;9.15;;;4.43;;
19691;SDS011;42748;50.016;19.890;2024-02-23T06:04:14;6.65;;;4.00;;
19691;SDS011;42748;50.016;19.890;2024-02-23T06:06:42;9.52;;;3.80;;
19691;SDS011;42748;50.016;19.890;2024-02-23T06:09:10;5.97;;;4.05;;
19691;SDS011;42748;50.016;19.890;2024-02-23T06:11:38;6.55;;;4.25;;
19691;SDS011;42748;50.016;19.890;2024-02-23T06:14:06;9.00;;;3.90;;
19691;SDS011;42748;50.016;19.890;2024-02-23T06:16:33;10.27;;;4.68;;
19691;SDS011;42748;50.016;19.890;2024-02-23T06:19:01;9.35;;;4.60;;
19691;SDS011;42748;50.016;19.890;2024-02-23T06:21:30;9.13;;;4.38;;
19691;SDS011;42748;50.016;19.890;2024-02-23T06:23:58;8.68;;;4.93;;
19691;SDS011;42748;50.016;19.890;2024-02-23T06:26:26;7.05;;;3.88;;
19691;SDS011;42748;50.016;19.890;2024-02-23T06:28:54;8.30;;;4.47;;
19691;SDS011;42748;50.016;19.890;2024-02-23T06:31:23;8.95;;;4.53;;
19691;SDS011;42748;50.016;19.890;2024-02-23T06:33:51;8.63;;;4.32;;
19691;SDS011;42748;50.016;19.890;2024-02-23T06:36:19;11.88;;;4.50;;
19691;SDS011;42748;50.016;19.890;2024-02-23T06:38:46;9.75;;;4.20;;
19691;SDS011;42748;50.016;19.890;2024-02-23T06:41:14;6.63;;;4.10;;
19691;SDS011;42748;50.016;19.890;2024-02-23T06:43:42;7.07;;;5.00;;
19691;SDS011;42748;50.016;19.890;2024-02-23T06:46:10;7.70;;;4.07;;
19691;SDS011;42748;50.016;19.890;2024-02-23T06:48:41;8.32;;;4.75;;
19691;SDS011;42748;50.016;19.890;2024-02-23T06:51:08;8.48;;;4.68;;
19691;SDS011;42748;50.016;19.890;2024-02-23T06:53:37;6.47;;;3.95;;
19691;SDS011;42748;50.016;19.890;2024-02-23T06:56:05;8.68;;;4.88;;
19691;SDS011;42748;50.016;19.890;2024-02-23T06:58:34;12.25;;;5.82;;
19691;SDS011;42748;50.016;19.890;2024-02-23T07:01:02;11.30;;;6.00;;
19691;SDS011;42748;50.016;19.890;2024-02-23T07:03:34;17.92;;;7.28;;
19691;SDS011;42748;50.016;19.890;2024-02-23T07:06:14;9.38;;;5.35;;
19691;SDS011;42748;50.016;19.890;2024-02-23T07:08:45;9.57;;;6.28;;
19691;SDS011;42748;50.016;19.890;2024-02-23T07:11:13;12.82;;;7.15;;
19691;SDS011;42748;50.016;19.890;2024-02-23T07:13:44;16.25;;;7.45;;
19691;SDS011;42748;50.016;19.890;2024-02-23T07:16:12;9.63;;;5.53;;
19691;SDS011;42748;50.016;19.890;2024-02-23T07:18:40;13.48;;;5.07;;
19691;SDS011;42748;50.016;19.890;2024-02-23T07:21:08;12.05;;;5.30;;
19691;SDS011;42748;50.016;19.890;2024-02-23T07:23:36;11.10;;;6.93;;
19691;SDS011;42748;50.016;19.890;2024-02-23T07:26:04;14.93;;;7.57;;
19691;SDS011;42748;50.016;19.890;2024-02-23T07:28:31;12.90;;;7.82;;
19691;SDS011;42748;50.016;19.890;2024-02-23T07:30:59;14.75;;;8.07;;
19691;SDS011;42748;50.016;19.890;2024-02-23T07:33:27;13.68;;;8.68;;
19691;SDS011;42748;50.016;19.890;2024-02-23T07:35:55;14.23;;;8.70;;
19691;SDS011;42748;50.016;19.890;2024-02-23T07:38:23;15.57;;;8.48;;
19691;SDS011;42748;50.016;19.890;2024-02-23T07:40:51;15.23;;;8.43;;
19691;SDS011;42748;50.016;19.890;2024-02-23T07:43:19;16.65;;;8.63;;
19691;SDS011;42748;50.016;19.890;2024-02-23T07:45:46;15.15;;;8.57;;
19691;SDS011;42748;50.016;19.890;2024-02-23T07:48:14;13.93;;;8.38;;
19691;SDS011;42748;50.016;19.890;2024-02-23T07:50:42;16.75;;;8.57;;
19691;SDS011;42748;50.016;19.890;2024-02-23T07:53:09;15.18;;;8.35;;
19691;SDS011;42748;50.016;19.890;2024-02-23T07:55:37;18.77;;;8.85;;
19691;SDS011;42748;50.016;19.890;2024-02-23T07:58:05;16.20;;;8.50;;
19691;SDS011;42748;50.016;19.890;2024-02-23T08:00:33;15.10;;;8.68;;
19691;SDS011;42748;50.016;19.890;2024-02-23T08:03:04;16.45;;;8.77;;
19691;SDS011;42748;50.016;19.890;2024-02-23T08:05:33;13.23;;;8.15;;
19691;SDS011;42748;50.016;19.890;2024-02-23T08:08:01;19.75;;;9.10;;
19691;SDS011;42748;50.016;19.890;2024-02-23T08:10:29;17.88;;;8.55;;
19691;SDS011;42748;50.016;19.890;2024-02-23T08:12:57;13.40;;;8.15;;
19691;SDS011;42748;50.016;19.890;2024-02-23T08:15:26;19.48;;;8.55;;
19691;SDS011;42748;50.016;19.890;2024-02-23T08:17:53;14.73;;;8.43;;
19691;SDS011;42748;50.016;19.890;2024-02-23T08:20:22;14.73;;;7.82;;
19691;SDS011;42748;50.016;19.890;2024-02-23T08:22:50;17.48;;;8.02;;
19691;SDS011;42748;50.016;19.890;2024-02-23T08:25:18;13.00;;;7.13;;
19691;SDS011;42748;50.016;19.890;2024-02-23T08:27:45;15.30;;;6.90;;
19691;SDS011;42748;50.016;19.890;2024-02-23T08:30:14;14.07;;;7.03;;
19691;SDS011;42748;50.016;19.890;2024-02-23T08:32:42;18.90;;;7.78;;
19691;SDS011;42748;50.016;19.890;2024-02-23T08:35:11;15.73;;;7.40;;
19691;SDS011;42748;50.016;19.890;2024-02-23T08:37:39;19.00;;;7.78;;
19691;SDS011;42748;50.016;19.890;2024-02-23T08:40:08;17.50;;;9.45;;
19691;SDS011;42748;50.016;19.890;2024-02-23T08:42:36;19.92;;;8.75;;
19691;SDS011;42748;50.016;19.890;2024-02-23T08:45:05;19.10;;;8.77;;
19691;SDS011;42748;50.016;19.890;2024-02-23T08:47:33;19.73;;;8.57;;
19691;SDS011;42748;50.016;19.890;2024-02-23T08:50:02;19.70;;;8.82;;
19691;SDS011;42748;50.016;19.890;2024-02-23T08:52:31;20.35;;;9.18;;
19691;SDS011;42748;50.016;19.890;2024-02-23T08:54:59;24.33;;;9.43;;
19691;SDS011;42748;50.016;19.890;2024-02-23T08:57:27;25.00;;;10.15;;
19691;SDS011;42748;50.016;19.890;2024-02-23T08:59:56;26.42;;;10.32;;
19691;SDS011;42748;50.016;19.890;2024-02-23T09:02:24;19.13;;;10.32;;
19691;SDS011;42748;50.016;19.890;2024-02-23T09:04:52;21.65;;;10.27;;
19691;SDS011;42748;50.016;19.890;2024-02-23T09:07:21;20.77;;;8.80;;
19691;SDS011;42748;50.016;19.890;2024-02-23T09:09:49;19.90;;;8.43;;
19691;SDS011;42748;50.016;19.890;2024-02-23T09:12:17;17.98;;;8.52;;
19691;SDS011;42748;50.016;19.890;2024-02-23T09:14:45;16.25;;;7.70;;
19691;SDS011;42748;50.016;19.890;2024-02-23T09:17:14;13.52;;;6.93;;
19691;SDS011;42748;50.016;19.890;2024-02-23T09:19:42;19.45;;;6.70;;
19691;SDS011;42748;50.016;19.890;2024-02-23T09:22:10;13.40;;;6.18;;
19691;SDS011;42748;50.016;19.890;2024-02-23T09:24:41;14.07;;;6.70;;
19691;SDS011;42748;50.016;19.890;2024-02-23T09:27:08;13.68;;;6.22;;
19691;SDS011;42748;50.016;19.890;2024-02-23T09:29:36;14.95;;;6.38;;
19691;SDS011;42748;50.016;19.890;2024-02-23T09:32:04;14.60;;;7.43;;
19691;SDS011;42748;50.016;19.890;2024-02-23T09:34:32;12.52;;;6.13;;
19691;SDS011;42748;50.016;19.890;2024-02-23T09:37:01;14.73;;;5.78;;
19691;SDS011;42748;50.016;19.890;2024-02-23T09:39:29;16.88;;;7.07;;
19691;SDS011;42748;50.016;19.890;2024-02-23T09:41:57;14.60;;;7.22;;
19691;SDS011;42748;50.016;19.890;2024-02-23T09:44:31;14.45;;;6.55;;
19691;SDS011;42748;50.016;19.890;2024-02-23T09:47:03;15.13;;;7.32;;
19691;SDS011;42748;50.016;19.890;2024-02-23T09:49:38;18.42;;;7.80;;
19691;SDS011;42748;50.016;19.890;2024-02-23T09:52:09;16.25;;;8.65;;
19691;SDS011;42748;50.016;19.890;2024-02-23T09:54:37;18.23;;;8.70;;
19691;SDS011;42748;50.016;19.890;2024-02-23T09:57:08;19.45;;;9.80;;
19691;SDS011;42748;50.016;19.890;2024-02-23T09:59:37;19.38;;;10.15;;
19691;SDS011;42748;50.016;19.890;2024-02-23T10:02:08;19.20;;;9.98;;
19691;SDS011;42748;50.016;19.890;2024-02-23T10:04:39;20.00;;;10.25;;
19691;SDS011;42748;50.016;19.890;2024-02-23T10:07:07;16.25;;;8.48;;
19691;SDS011;42748;50.016;19.890;2024-02-23T10:09:36;16.30;;;7.65;;
19691;SDS011;42748;50.016;19.890;2024-02-23T10:12:03;14.27;;;7.82;;
19691;SDS011;42748;50.016;19.890;2024-02-23T10:14:32;18.13;;;8.30;;
19691;SDS011;42748;50.016;19.890;2024-02-23T10:17:00;15.80;;;8.35;;
19691;SDS011;42748;50.016;19.890;2024-02-23T10:19:29;18.15;;;9.07;;
19691;SDS011;42748;50.016;19.890;2024-02-23T10:21:56;16.23;;;8.13;;
19691;SDS011;42748;50.016;19.890;2024-02-23T10:24:25;15.75;;;8.90;;
19691;SDS011;42748;50.016;19.890;2024-02-23T10:26:52;14.38;;;8.15;;
19691;SDS011;42748;50.016;19.890;2024-02-23T10:29:20;10.02;;;6.03;;
19691;SDS011;42748;50.016;19.890;2024-02-23T10:31:49;12.90;;;7.45;;
19691;SDS011;42748;50.016;19.890;2024-02-23T10:34:20;12.90;;;6.75;;
19691;SDS011;42748;50.016;19.890;2024-02-23T10:36:48;10.30;;;5.80;;
19691;SDS011;42748;50.016;19.890;2024-02-23T10:39:17;12.05;;;6.18;;
19691;SDS011;42748;50.016;19.890;2024-02-23T10:42:00;7.60;;;4.65;;
19691;SDS011;42748;50.016;19.890;2024-02-23T10:44:30;8.32;;;5.22;;
19691;SDS011;42748;50.016;19.890;2024-02-23T10:46:58;10.35;;;5.47;;
19691;SDS011;42748;50.016;19.890;2024-02-23T10:49:26;8.45;;;4.53;;
19691;SDS011;42748;50.016;19.890;2024-02-23T10:51:55;8.65;;;4.72;;
19691;SDS011;42748;50.016;19.890;2024-02-23T10:54:24;8.23;;;4.32;;
19691;SDS011;42748;50.016;19.890;2024-02-23T10:56:52;9.02;;;4.55;;
19691;SDS011;42748;50.016;19.890;2024-02-23T10:59:23;8.80;;;5.43;;
19691;SDS011;42748;50.016;19.890;2024-02-23T11:01:51;12.55;;;6.13;;
19691;SDS011;42748;50.016;19.890;2024-02-23T11:04:20;11.68;;;5.78;;
19691;SDS011;42748;50.016;19.890;2024-02-23T11:06:50;13.25;;;6.07;;
19691;SDS011;42748;50.016;19.890;2024-02-23T11:09:23;8.18;;;4.97;;
19691;SDS011;42748;50.016;19.890;2024-02-23T11:11:54;14.63;;;6.88;;
19691;SDS011;42748;50.016;19.890;2024-02-23T11:14:32;13.88;;;7.18;;
19691;SDS011;42748;50.016;19.890;2024-02-23T11:17:02;16.33;;;7.88;;
19691;SDS011;42748;50.016;19.890;2024-02-23T11:19:34;17.88;;;7.85;;
19691;SDS011;42748;50.016;19.890;2024-02-23T11:22:03;16.67;;;6.70;;
19691;SDS011;42748;50.016;19.890;2024-02-23T11:24:33;11.85;;;5.88;;
19691;SDS011;42748;50.016;19.890;2024-02-23T11:27:01;10.38;;;4.60;;
19691;SDS011;42748;50.016;19.890;2024-02-23T11:29:35;6.65;;;3.70;;
19691;SDS011;42748;50.016;19.890;2024-02-23T11:32:12;7.95;;;3.40;;
19691;SDS011;42748;50.016;19.890;2024-02-23T11:34:40;8.85;;;3.15;;
19691;SDS011;42748;50.016;19.890;2024-02-23T11:37:11;6.32;;;3.30;;
19691;SDS011;42748;50.016;19.890;2024-02-23T11:39:41;7.28;;;3.55;;
19691;SDS011;42748;50.016;19.890;2024-02-23T11:42:09;5.18;;;2.83;;
19691;SDS011;42748;50.016;19.890;2024-02-23T11:44:38;6.65;;;2.97;;
19691;SDS011;42748;50.016;19.890;2024-02-23T11:47:07;6.68;;;2.83;;
19691;SDS011;42748;50.016;19.890;2024-02-23T11:49:35;5.35;;;2.55;;
19691;SDS011;42748;50.016;19.890;2024-02-23T11:52:04;4.47;;;2.47;;
19691;SDS011;42748;50.016;19.890;2024-02-23T11:54:32;6.45;;;2.75;;
19691;SDS011;42748;50.016;19.890;2024-02-23T11:57:00;5.13;;;3.00;;
19691;SDS011;42748;50.016;19.890;2024-02-23T11:59:28;6.50;;;2.75;;
19691;SDS011;42748;50.016;19.890;2024-02-23T12:01:56;7.82;;;2.83;;
19691;SDS011;42748;50.016;19.890;2024-02-23T12:04:26;5.70;;;2.50;;
19691;SDS011;42748;50.016;19.890;2024-02-23T12:06:58;4.85;;;2.80;;
19691;SDS011;42748;50.016;19.890;2024-02-23T12:09:29;5.32;;;2.53;;
19691;SDS011;42748;50.016;19.890;2024-02-23T12:11:57;6.47;;;3.40;;
19691;SDS011;42748;50.016;19.890;2024-02-23T12:14:25;5.65;;;3.10;;
19691;SDS011;42748;50.016;19.890;2024-02-23T12:16:57;5.68;;;2.80;;
19691;SDS011;42748;50.016;19.890;2024-02-23T12:19:30;4.55;;;2.67;;
19691;SDS011;42748;50.016;19.890;2024-02-23T12:22:00;6.35;;;2.88;;
19691;SDS011;42748;50.016;19.890;2024-02-23T12:24:29;6.00;;;3.00;;
19691;SDS011;42748;50.016;19.890;2024-02-23T12:26:58;5.10;;;3.00;;
19691;SDS011;42748;50.016;19.890;2024-02-23T12:29:29;6.03;;;3.15;;
19691;SDS011;42748;50.016;19.890;2024-02-23T12:32:04;4.82;;;2.90;;
19691;SDS011;42748;50.016;19.890;2024-02-23T12:34:32;5.68;;;3.50;;
19691;SDS011;42748;50.016;19.890;2024-02-23T12:37:04;6.10;;;3.30;;
19691;SDS011;42748;50.016;19.890;2024-02-23T12:39:35;5.15;;;2.70;;
19691;SDS011;42748;50.016;19.890;2024-02-23T12:42:03;7.57;;;3.22;;
19691;SDS011;42748;50.016;19.890;2024-02-23T12:44:32;7.32;;;2.90;;
19691;SDS011;42748;50.016;19.890;2024-02-23T12:47:01;5.00;;;2.70;;
19691;SDS011;42748;50.016;19.890;2024-02-23T12:49:29;6.50;;;3.00;;
19691;SDS011;42748;50.016;19.890;2024-02-23T12:51:57;5.32;;;2.70;;
19691;SDS011;42748;50.016;19.890;2024-02-23T12:54:28;6.45;;;2.72;;
19691;SDS011;42748;50.016;19.890;2024-02-23T12:56:56;8.35;;;2.95;;
19691;SDS011;42748;50.016;19.890;2024-02-23T12:59:24;5.00;;;3.10;;
19691;SDS011;42748;50.016;19.890;2024-02-23T13:01:52;5.25;;;2.75;;
19691;SDS011;42748;50.016;19.890;2024-02-23T13:04:20;6.15;;;3.10;;
19691;SDS011;42748;50.016;19.890;2024-02-23T13:06:48;5.25;;;2.97;;
19691;SDS011;42748;50.016;19.890;2024-02-23T13:09:18;5.45;;;2.75;;
19691;SDS011;42748;50.016;19.890;2024-02-23T13:11:47;6.80;;;2.67;;
19691;SDS011;42748;50.016;19.890;2024-02-23T13:14:16;5.90;;;2.90;;
19691;SDS011;42748;50.016;19.890;2024-02-23T13:16:44;5.95;;;2.75;;
19691;SDS011;42748;50.016;19.890;2024-02-23T13:19:12;6.10;;;3.05;;
19691;SDS011;42748;50.016;19.890;2024-02-23T13:21:39;6.05;;;2.90;;
19691;SDS011;42748;50.016;19.890;2024-02-23T13:24:09;5.78;;;3.28;;
19691;SDS011;42748;50.016;19.890;2024-02-23T13:26:37;6.63;;;2.83;;
19691;SDS011;42748;50.016;19.890;2024-02-23T13:29:05;5.72;;;2.88;;
19691;SDS011;42748;50.016;19.890;2024-02-23T13:31:34;8.65;;;3.40;;
19691;SDS011;42748;50.016;19.890;2024-02-23T13:34:02;5.15;;;2.67;;
19691;SDS011;42748;50.016;19.890;2024-02-23T13:36:31;5.97;;;3.20;;
19691;SDS011;42748;50.016;19.890;2024-02-23T13:38:58;5.13;;;2.88;;
19691;SDS011;42748;50.016;19.890;2024-02-23T13:41:27;7.35;;;3.17;;
19691;SDS011;42748;50.016;19.890;2024-02-23T13:43:54;5.93;;;3.47;;
19691;SDS011;42748;50.016;19.890;2024-02-23T13:46:22;8.05;;;4.22;;
19691;SDS011;42748;50.016;19.890;2024-02-23T13:49:01;6.82;;;3.58;;
19691;SDS011;42748;50.016;19.890;2024-02-23T13:51:29;7.50;;;4.43;;
19691;SDS011;42748;50.016;19.890;2024-02-23T13:53:57;7.85;;;4.30;;
19691;SDS011;42748;50.016;19.890;2024-02-23T13:56:26;7.38;;;4.35;;
19691;SDS011;42748;50.016;19.890;2024-02-23T13:58:54;6.78;;;4.07;;
19691;SDS011;42748;50.016;19.890;2024-02-23T14:01:22;11.55;;;6.75;;
19691;SDS011;42748;50.016;19.890;2024-02-23T14:03:50;9.60;;;5.05;;
19691;SDS011;42748;50.016;19.890;2024-02-23T14:06:17;8.05;;;4.53;;
19691;SDS011;42748;50.016;19.890;2024-02-23T14:08:45;8.65;;;4.55;;
19691;SDS011;42748;50.016;19.890;2024-02-23T14:11:15;7.45;;;4.10;;
19691;SDS011;42748;50.016;19.890;2024-02-23T14:13:43;7.43;;;4.32;;
19691;SDS011;42748;50.016;19.890;2024-02-23T14:16:14;7.55;;;3.95;;
19691;SDS011;42748;50.016;19.890;2024-02-23T14:18:42;6.38;;;3.42;;
19691;SDS011;42748;50.016;19.890;2024-02-23T14:21:11;8.93;;;3.78;;
19691;SDS011;42748;50.016;19.890;2024-02-23T14:23:40;5.43;;;2.97;;
19691;SDS011;42748;50.016;19.890;2024-02-23T14:26:08;4.45;;;2.85;;
19691;SDS011;42748;50.016;19.890;2024-02-23T14:28:36;4.38;;;2.63;;
19691;SDS011;42748;50.016;19.890;2024-02-23T14:31:04;4.40;;;2.80;;
19691;SDS011;42748;50.016;19.890;2024-02-23T14:33:32;5.25;;;2.30;;
19691;SDS011;42748;50.016;19.890;2024-02-23T14:35:59;5.18;;;2.78;;
19691;SDS011;42748;50.016;19.890;2024-02-23T14:38:27;3.85;;;2.25;;